Le Ponant — FGZZ — position and weather

sailwx.info

Track history (hours):
 
Tides and Currents Weather Stations Pressure Air Temp Water Temp Dewpoint Dewpoint Depression Visibility Wind Speed Wind Dir Waves Ship Positions

Le Ponant

Operator: Compangy des Iles du Ponant

Last reported at 2018-Jan-03 20:04 UTC. Time now 2018-Jan-19 03:36 UTC.
Position N 14°35' W 061°04'.
Warning: this ship's position is 15 days out of date.

Length 84 m; draft 4.2 m.

Type: Passenger vessel. MMSI: 227186000.

Date/timePositionNaut miles runAvg speedWind from/ knotsBaromVisibWave heightAir tempDewpointWater temp
2018-Jan-03 20:04N 14°35' W 061°04'1 0.1
2018-Jan-03 11:24N 14°36' W 061°04'13 0.4
2018-Jan-02 02:57N 14°40' W 061°17'410.0
2018-Jan-02 02:30N 14°36' W 061°16'611.2
2018-Jan-02 01:58N 14°30' W 061°14'  
2017-Dec-28 03:06N 14°26' W 061°09'1 9.5
2017-Dec-28 02:58N 14°28' W 061°08'610.4
2017-Dec-28 02:25N 14°33' W 061°06'3 6.0
2017-Dec-28 01:59N 14°35' W 061°05'1 2.9
2017-Dec-28 01:30N 14°36' W 061°04'0 0.0
2017-Dec-28 01:00N 14°36' W 061°04'0 0.0
2017-Dec-27 12:36N 14°36' W 061°04'0 0.0
2017-Dec-27 12:18N 14°36' W 061°04'0 0.0
2017-Dec-27 11:57N 14°36' W 061°04'  
Track history (hours):
 
Tides and Currents Weather Stations Pressure Air Temp Water Temp Dewpoint Dewpoint Depression Visibility Wind Speed Wind Dir Waves Ship Positions

Le Ponant

Operator: Compangy des Iles du Ponant

Last reported at 2018-Jan-03 20:04 UTC. Time now 2018-Jan-19 03:36 UTC.
Position N 14°35' W 061°04'.
Warning: this ship's position is 15 days out of date.

Length 84 m; draft 4.2 m.

Type: Passenger vessel. MMSI: 227186000.

Date/timePositionNaut miles runAvg speedWind from/ knotsBaromVisibWave heightAir tempDewpointWater temp
2018-Jan-03 20:04N 14°35' W 061°04'1 0.1
2018-Jan-03 11:24N 14°36' W 061°04'13 0.4
2018-Jan-02 02:57N 14°40' W 061°17'410.0
2018-Jan-02 02:30N 14°36' W 061°16'611.2
2018-Jan-02 01:58N 14°30' W 061°14'  
2017-Dec-28 03:06N 14°26' W 061°09'1 9.5
2017-Dec-28 02:58N 14°28' W 061°08'610.4
2017-Dec-28 02:25N 14°33' W 061°06'3 6.0
2017-Dec-28 01:59N 14°35' W 061°05'1 2.9
2017-Dec-28 01:30N 14°36' W 061°04'0 0.0
2017-Dec-28 01:00N 14°36' W 061°04'0 0.0
2017-Dec-27 12:36N 14°36' W 061°04'0 0.0
2017-Dec-27 12:18N 14°36' W 061°04'0 0.0
2017-Dec-27 11:57N 14°36' W 061°04'  

Dump ship's entire track history